createdAt,value
2022-10-29T00:00:10.498Z,100912.97
2022-10-29T00:01:14.332Z,100914.03
2022-10-29T00:02:17.985Z,100908.48
2022-10-29T00:03:22.117Z,100913.18
2022-10-29T00:04:25.215Z,100911.57
2022-10-29T00:05:31.775Z,100915.09
2022-10-29T00:06:35.311Z,100912.22
2022-10-29T00:07:38.654Z,100919.78
2022-10-29T00:08:41.524Z,100915.84
2022-10-29T00:09:44.817Z,100914.23
2022-10-29T00:10:47.381Z,100914.03
2022-10-29T00:11:50.795Z,100911.91
2022-10-29T00:12:54.915Z,100909.66
2022-10-29T00:13:59.776Z,100903.46
2022-10-29T00:15:03.953Z,100905.17
2022-10-29T00:16:08.783Z,100909.86
2022-10-29T00:17:12.288Z,100905.27
2022-10-29T00:18:15.896Z,100906.23
2022-10-29T00:19:19.124Z,100897.71
2022-10-29T00:20:22.168Z,100897.81
2022-10-29T00:21:25.961Z,100899.84
2022-10-29T00:22:28.757Z,100902.81
2022-10-29T00:23:31.958Z,100901.23
2022-10-29T00:24:35.778Z,100902.70
2022-10-29T00:25:39.491Z,100899.08
2022-10-29T00:26:46.542Z,100896.21
2022-10-29T00:27:49.729Z,100892.69
2022-10-29T00:28:52.711Z,100893.75
2022-10-29T00:29:58.096Z,100888.20
2022-10-29T00:31:08.191Z,100889.67
2022-10-29T00:32:12.447Z,100885.84
2022-10-29T00:33:17.193Z,100885.09
2022-10-29T00:34:20.307Z,100882.42
2022-10-29T00:35:25.903Z,100893.09
2022-10-29T00:36:31.004Z,100884.44
2022-10-29T00:37:35.631Z,100880.20
2022-10-29T00:38:39.295Z,100880.61
2022-10-29T00:39:44.901Z,100877.28
2022-10-29T00:40:48.085Z,100880.29
2022-10-29T00:41:55.130Z,100878.33
2022-10-29T00:43:15.718Z,100871.53
2022-10-29T00:44:29.628Z,100877.08
2022-10-29T00:45:33.150Z,100876.23
2022-10-29T00:47:43.055Z,100871.84
2022-10-29T00:48:48.666Z,100872.05
2022-10-29T00:49:54.153Z,100876.42
2022-10-29T00:50:58.796Z,100873.25
2022-10-29T00:52:04.301Z,100872.59
2022-10-29T00:53:07.790Z,100871.69
2022-10-29T00:54:13.042Z,100873.40
2022-10-29T00:55:16.897Z,100864.65
2022-10-29T00:56:23.335Z,100869.33
2022-10-29T00:57:31.534Z,100870.94
2022-10-29T00:58:37.755Z,100866.16
2022-10-29T00:59:42.009Z,100864.45
2022-10-29T01:00:44.446Z,100865.17
2022-10-29T01:01:48.950Z,100858.16
2022-10-29T01:02:53.037Z,100859.97
2022-10-29T01:03:58.506Z,100861.02
2022-10-29T01:05:03.380Z,100856.30
2022-10-29T01:06:09.004Z,100852.77
2022-10-29T01:07:11.956Z,100851.20
2022-10-29T01:08:19.327Z,100853.00
2022-10-29T01:09:22.832Z,100853.11
2022-10-29T01:10:26.849Z,100843.59
2022-10-29T01:11:32.962Z,100850.09
2022-10-29T01:12:38.974Z,100846.66
2022-10-29T01:13:49.603Z,100854.33
2022-10-29T01:14:53.489Z,100853.87
2022-10-29T01:16:01.478Z,100852.82
2022-10-29T01:17:12.631Z,100856.53
2022-10-29T01:18:22.899Z,100858.15
2022-10-29T01:19:41.170Z,100853.11
2022-10-29T01:21:01.377Z,100854.30
2022-10-29T01:22:09.485Z,100852.22
2022-10-29T01:23:14.589Z,100851.59
2022-10-29T01:24:22.868Z,100848.46
2022-10-29T01:25:28.044Z,100856.84
2022-10-29T01:26:50.167Z,100859.88
2022-10-29T01:28:00.958Z,100850.83
2022-10-29T01:29:15.313Z,100857.55
2022-10-29T01:30:23.528Z,100857.97
2022-10-29T01:31:33.825Z,100853.13
2022-10-29T01:32:54.329Z,100859.59
2022-10-29T01:34:02.664Z,100857.69
2022-10-29T01:35:10.555Z,100847.36
2022-10-29T01:36:15.835Z,100847.36
2022-10-29T01:37:29.931Z,100849.27
2022-10-29T01:38:43.109Z,100849.08
2022-10-29T01:39:49.852Z,100847.55
2022-10-29T01:40:58.164Z,100846.32
2022-10-29T01:42:02.492Z,100839.80
2022-10-29T01:43:12.963Z,100842.27
2022-10-29T01:44:32.877Z,100844.42
2022-10-29T01:45:38.292Z,100840.91
2022-10-29T01:46:43.876Z,100846.83
2022-10-29T01:47:49.167Z,100837.48
2022-10-29T01:48:54.438Z,100843.13
2022-10-29T01:49:58.811Z,100847.78
2022-10-29T01:51:05.204Z,100841.31
2022-10-29T01:52:09.443Z,100840.14
2022-10-29T01:53:12.217Z,100841.85
2022-10-29T01:54:16.453Z,100844.08
2022-10-29T01:55:21.640Z,100840.84
2022-10-29T01:56:24.885Z,100844.30
2022-10-29T01:57:36.588Z,100846.09
2022-10-29T01:58:43.741Z,100836.50
2022-10-29T01:59:55.526Z,100843.16
2022-10-29T02:01:09.506Z,100847.53
2022-10-29T02:02:18.809Z,100841.72
2022-10-29T02:03:31.809Z,100833.26
2022-10-29T02:04:35.953Z,100841.84
2022-10-29T02:05:59.081Z,100836.52
2022-10-29T02:07:04.371Z,100840.31
2022-10-29T02:08:14.978Z,100836.42
2022-10-29T02:09:20.982Z,100838.32
2022-10-29T02:10:25.368Z,100840.22
2022-10-29T02:11:30.377Z,100839.36
2022-10-29T02:12:35.468Z,100842.88
2022-10-29T02:13:40.757Z,100841.17
2022-10-29T02:14:47.802Z,100844.22
2022-10-29T02:15:53.188Z,100839.67
2022-10-29T02:16:56.484Z,100838.32
2022-10-29T02:18:02.441Z,100838.23
2022-10-29T02:19:05.789Z,100835.56
2022-10-29T02:20:10.150Z,100833.00
2022-10-29T02:21:14.691Z,100826.24
2022-10-29T02:22:18.197Z,100828.62
2022-10-29T02:23:21.795Z,100829.46
2022-10-29T02:24:25.728Z,100824.72
2022-10-29T02:25:28.392Z,100826.43
2022-10-29T02:26:33.887Z,100824.81
2022-10-29T02:27:38.531Z,100825.09
2022-10-29T02:28:44.132Z,100824.91
2022-10-29T02:29:47.839Z,100824.42
2022-10-29T02:30:52.085Z,100825.76
2022-10-29T02:31:55.206Z,100827.23
2022-10-29T02:32:58.366Z,100826.38
2022-10-29T02:34:03.000Z,100836.70
2022-10-29T02:35:06.721Z,100821.91
2022-10-29T02:36:10.096Z,100823.86
2022-10-29T02:37:13.430Z,100826.04
2022-10-29T02:38:17.756Z,100826.81
2022-10-29T02:39:21.301Z,100818.73
2022-10-29T02:40:25.603Z,100814.63
2022-10-29T02:41:29.078Z,100822.43
2022-10-29T02:42:32.519Z,100810.93
2022-10-29T02:43:35.920Z,100815.67
2022-10-29T02:44:40.881Z,100813.41
2022-10-29T02:45:44.973Z,100808.09
2022-10-29T02:46:49.570Z,100813.32
2022-10-29T02:47:53.186Z,100803.23
2022-10-29T02:48:57.810Z,100804.08
2022-10-29T02:50:00.942Z,100806.02
2022-10-29T02:51:03.159Z,100801.43
2022-10-29T02:52:06.662Z,100799.17
2022-10-29T02:53:09.751Z,100793.66
2022-10-29T02:54:13.163Z,100802.78
2022-10-29T02:55:16.457Z,100797.16
2022-10-29T02:56:21.844Z,100799.72
2022-10-29T02:57:25.454Z,100796.11
2022-10-29T02:58:27.707Z,100795.16
2022-10-29T02:59:36.040Z,100799.27
2022-10-29T03:00:39.243Z,100799.45
2022-10-29T03:01:43.189Z,100804.27
2022-10-29T03:02:45.951Z,100794.22
2022-10-29T03:03:49.188Z,100800.30
2022-10-29T03:04:51.430Z,100800.88
2022-10-29T03:05:54.851Z,100801.14
2022-10-29T03:06:58.460Z,100801.88
2022-10-29T03:08:01.029Z,100806.02
2022-10-29T03:09:05.056Z,100807.73
2022-10-29T03:10:07.925Z,100804.39
2022-10-29T03:11:11.320Z,100804.72
2022-10-29T03:12:16.094Z,100801.47
2022-10-29T03:13:19.374Z,100798.98
2022-10-29T03:14:21.637Z,100805.25
2022-10-29T03:15:25.456Z,100801.17
2022-10-29T03:16:28.740Z,100806.84
2022-10-29T03:17:33.300Z,100801.09
2022-10-29T03:18:37.014Z,100797.16
2022-10-29T03:19:39.570Z,100796.80
2022-10-29T03:20:43.815Z,100793.73
2022-10-29T03:21:46.386Z,100793.03
2022-10-29T03:22:49.672Z,100790.55
2022-10-29T03:23:53.183Z,100795.27
2022-10-29T03:24:56.791Z,100805.72
2022-10-29T03:26:00.191Z,100801.94
2022-10-29T03:27:04.730Z,100797.19
2022-10-29T03:28:08.350Z,100793.32
2022-10-29T03:29:12.097Z,100792.20
2022-10-29T03:30:15.695Z,100798.55
2022-10-29T03:31:19.834Z,100799.31
2022-10-29T03:32:23.311Z,100794.94
2022-10-29T03:33:26.607Z,100799.08
2022-10-29T03:34:29.968Z,100796.63
2022-10-29T03:35:33.222Z,100803.74
2022-10-29T03:36:37.016Z,100794.83
2022-10-29T03:37:39.560Z,100786.64
2022-10-29T03:38:43.086Z,100789.52
2022-10-29T03:39:46.487Z,100788.57
2022-10-29T03:40:50.096Z,100791.96
2022-10-29T03:41:54.858Z,100777.27
2022-10-29T03:42:58.553Z,100769.91
2022-10-29T03:44:03.047Z,100774.57
2022-10-29T03:45:05.880Z,100772.13
2022-10-29T03:46:09.615Z,100771.83
2022-10-29T03:47:11.962Z,100772.17
2022-10-29T03:48:15.362Z,100761.30
2022-10-29T03:49:18.647Z,100765.45
2022-10-29T03:50:22.269Z,100767.55
2022-10-29T03:51:24.612Z,100764.80
2022-10-29T03:52:27.710Z,100760.88
2022-10-29T03:53:35.174Z,100755.20
2022-10-29T03:54:40.245Z,100759.11
2022-10-29T03:55:42.921Z,100755.92
2022-10-29T03:56:46.253Z,100763.89
2022-10-29T03:57:49.449Z,100756.69
2022-10-29T03:58:55.507Z,100754.97
2022-10-29T03:59:57.874Z,100758.34
2022-10-29T04:01:02.437Z,100757.01
2022-10-29T04:02:06.308Z,100747.50
2022-10-29T04:03:08.653Z,100751.02
2022-10-29T04:04:13.460Z,100746.27
2022-10-29T04:05:19.860Z,100745.75
2022-10-29T04:06:23.406Z,100751.32
2022-10-29T04:07:26.808Z,100744.81
2022-10-29T04:08:29.685Z,100746.09
2022-10-29T04:09:36.216Z,100746.69
2022-10-29T04:10:41.384Z,100744.64
2022-10-29T04:11:43.643Z,100750.42
2022-10-29T04:12:47.257Z,100744.72
2022-10-29T04:13:51.805Z,100754.58
2022-10-29T04:14:55.313Z,100751.92
2022-10-29T04:15:58.711Z,100748.91
2022-10-29T04:17:03.506Z,100747.64
2022-10-29T04:18:07.391Z,100739.97
2022-10-29T04:19:09.848Z,100738.17
2022-10-29T04:20:31.727Z,100738.42
2022-10-29T04:27:07.766Z,100723.39
2022-10-29T04:27:08.072Z,100727.46
2022-10-29T04:29:22.960Z,100726.18
2022-10-29T04:30:25.952Z,100726.95
2022-10-29T04:31:28.713Z,100729.69
2022-10-29T04:32:31.289Z,100729.95
2022-10-29T04:33:34.794Z,100730.63
2022-10-29T04:34:37.150Z,100730.63
2022-10-29T04:35:41.314Z,100730.33
2022-10-29T04:36:44.788Z,100734.14
2022-10-29T04:37:49.766Z,100730.46
2022-10-29T04:38:52.100Z,100728.32
2022-10-29T04:39:55.394Z,100728.06
2022-10-29T04:41:00.243Z,100724.07
2022-10-29T04:42:02.943Z,100721.59
2022-10-29T04:43:07.131Z,100725.78
2022-10-29T04:44:13.708Z,100729.95
2022-10-29T04:45:17.212Z,100730.45
2022-10-29T04:46:20.369Z,100728.75
2022-10-29T04:47:23.688Z,100729.27
2022-10-29T04:48:30.118Z,100727.47
2022-10-29T04:49:33.514Z,100731.09
2022-10-29T04:50:38.070Z,100728.23
2022-10-29T04:51:42.839Z,100725.88
2022-10-29T04:52:46.166Z,100731.58
2022-10-29T04:53:49.108Z,100729.60
2022-10-29T04:54:52.297Z,100738.05
2022-10-29T04:56:04.441Z,100742.50
2022-10-29T04:57:08.081Z,100738.73
2022-10-29T04:58:15.974Z,100740.18
2022-10-29T04:59:18.227Z,100731.70
2022-10-29T05:00:22.594Z,100736.08
2022-10-29T05:01:30.708Z,100730.59
2022-10-29T05:02:34.182Z,100734.87
2022-10-29T05:03:38.941Z,100734.95
2022-10-29T05:04:41.076Z,100731.36
2022-10-29T05:05:47.297Z,100732.98
2022-10-29T05:06:50.708Z,100741.89
2022-10-29T05:07:59.980Z,100740.22
2022-10-29T05:09:03.244Z,100738.15
2022-10-29T05:10:08.442Z,100742.40
2022-10-29T05:11:15.871Z,100743.84
2022-10-29T05:12:20.873Z,100745.55
2022-10-29T05:13:24.167Z,100745.29
2022-10-29T05:14:27.557Z,100737.02
2022-10-29T05:15:32.340Z,100740.53
2022-10-29T05:16:35.613Z,100749.18
2022-10-29T05:17:38.396Z,100747.11
2022-10-29T05:18:41.692Z,100739.67
2022-10-29T05:19:44.571Z,100745.31
2022-10-29T05:20:47.969Z,100749.28
2022-10-29T05:21:51.674Z,100736.85
2022-10-29T05:23:01.601Z,100740.37
2022-10-29T05:24:07.914Z,100736.94
2022-10-29T05:25:11.520Z,100732.30
2022-10-29T05:26:16.949Z,100731.44
2022-10-29T05:27:20.177Z,100719.55
2022-10-29T05:28:25.561Z,100719.93
2022-10-29T05:29:29.579Z,100722.69
2022-10-29T05:30:32.782Z,100727.06
2022-10-29T05:31:38.061Z,100728.69
2022-10-29T05:32:41.584Z,100725.95
2022-10-29T05:33:44.646Z,100725.36
2022-10-29T05:34:49.935Z,100718.25
2022-10-29T05:35:53.335Z,100716.62
2022-10-29T05:36:56.943Z,100722.62
2022-10-29T05:38:03.283Z,100719.01
2022-10-29T05:39:07.493Z,100713.15
2022-10-29T05:40:14.550Z,100719.01
2022-10-29T05:41:19.018Z,100709.62
2022-10-29T05:42:21.352Z,100707.32
2022-10-29T05:43:24.543Z,100700.39
2022-10-29T05:44:28.609Z,100706.20
2022-10-29T05:45:35.531Z,100706.75
2022-10-29T05:46:40.021Z,100710.84
2022-10-29T05:47:43.692Z,100704.30
2022-10-29T05:48:45.929Z,100710.94
2022-10-29T05:49:49.448Z,100709.14
2022-10-29T05:50:52.847Z,100717.60
2022-10-29T05:51:56.248Z,100715.58
2022-10-29T05:53:01.634Z,100724.70
2022-10-29T05:54:05.035Z,100716.61
2022-10-29T05:55:12.857Z,100720.09
2022-10-29T05:56:18.106Z,100719.80
2022-10-29T05:57:24.561Z,100723.75
2022-10-29T05:58:28.146Z,100714.66
2022-10-29T05:59:33.731Z,100710.05
2022-10-29T06:00:37.647Z,100716.92
2022-10-29T06:01:40.940Z,100711.43
2022-10-29T06:02:43.854Z,100705.34
2022-10-29T06:03:47.622Z,100709.79
2022-10-29T06:05:04.553Z,100711.83
2022-10-29T06:06:10.393Z,100710.02
2022-10-29T06:07:13.114Z,100717.94
2022-10-29T06:08:16.557Z,100715.82
2022-10-29T06:09:19.164Z,100714.73
2022-10-29T06:10:24.754Z,100716.13
2022-10-29T06:11:28.941Z,100718.59
2022-10-29T06:12:34.915Z,100716.13
2022-10-29T06:13:38.966Z,100714.22
2022-10-29T06:14:41.700Z,100717.09
2022-10-29T06:15:46.213Z,100706.14
2022-10-29T06:16:50.498Z,100705.73
2022-10-29T06:17:55.047Z,100702.00
2022-10-29T06:18:58.865Z,100709.04
2022-10-29T06:20:02.170Z,100702.83
2022-10-29T06:21:06.211Z,100700.80
2022-10-29T06:22:10.841Z,100701.69
2022-10-29T06:23:15.910Z,100701.41
2022-10-29T06:24:19.313Z,100704.45
2022-10-29T06:25:22.636Z,100714.14
2022-10-29T06:26:26.217Z,100705.20
2022-10-29T06:27:28.782Z,100710.63
2022-10-29T06:28:34.822Z,100708.31
2022-10-29T06:29:38.330Z,100702.20
2022-10-29T06:30:46.077Z,100705.84
2022-10-29T06:31:49.489Z,100705.81
2022-10-29T06:32:53.553Z,100705.53
2022-10-29T06:33:57.333Z,100707.11
2022-10-29T06:35:00.722Z,100712.24
2022-10-29T06:36:03.600Z,100715.52
2022-10-29T06:37:07.000Z,100708.23
2022-10-29T06:38:12.577Z,100698.00
2022-10-29T06:39:17.040Z,100703.73
2022-10-29T06:40:21.316Z,100700.55
2022-10-29T06:41:27.453Z,100699.25
2022-10-29T06:42:31.957Z,100702.35
2022-10-29T06:43:35.561Z,100703.12
2022-10-29T06:44:38.846Z,100700.69
2022-10-29T06:45:43.597Z,100710.13
2022-10-29T06:46:46.913Z,100698.91
2022-10-29T06:47:50.095Z,100699.23
2022-10-29T06:48:52.772Z,100700.45
2022-10-29T06:49:55.130Z,100703.73
2022-10-29T06:51:01.977Z,100695.19
2022-10-29T06:52:05.680Z,100696.88
2022-10-29T06:53:10.030Z,100709.87
2022-10-29T06:54:13.626Z,100710.30
2022-10-29T06:55:16.936Z,100714.33
2022-10-29T06:56:20.654Z,100714.83
2022-10-29T06:57:26.899Z,100706.42
2022-10-29T06:58:33.888Z,100696.63
2022-10-29T06:59:37.077Z,100690.08
2022-10-29T07:00:40.690Z,100693.78
2022-10-29T07:01:45.002Z,100685.27
2022-10-29T07:02:48.473Z,100684.84
2022-10-29T07:03:51.729Z,100676.86
2022-10-29T07:04:57.149Z,100662.73
2022-10-29T07:06:00.866Z,100662.85
2022-10-29T07:07:03.744Z,100679.12
2022-10-29T07:08:07.874Z,100672.19
2022-10-29T07:09:11.274Z,100677.69
2022-10-29T07:10:14.884Z,100668.20
2022-10-29T07:11:20.433Z,100679.05
2022-10-29T07:12:23.668Z,100677.11
2022-10-29T07:13:28.152Z,100667.00
2022-10-29T07:14:30.470Z,100678.19
2022-10-29T07:15:33.600Z,100677.81
2022-10-29T07:16:36.658Z,100680.59
2022-10-29T07:17:42.093Z,100666.36
2022-10-29T07:18:45.421Z,100676.33
2022-10-29T07:19:49.039Z,100657.85
2022-10-29T07:20:53.391Z,100655.79
2022-10-29T07:21:56.876Z,100656.03
2022-10-29T07:23:02.965Z,100650.18
2022-10-29T07:24:06.717Z,100640.33
2022-10-29T07:25:11.776Z,100644.75
2022-10-29T07:26:15.488Z,100641.48
2022-10-29T07:27:19.036Z,100640.25
2022-10-29T07:28:23.647Z,100636.79
2022-10-29T07:29:27.477Z,100633.75
2022-10-29T07:30:31.712Z,100631.07
2022-10-29T07:31:34.998Z,100629.69
2022-10-29T07:32:39.349Z,100636.13
2022-10-29T07:33:42.532Z,100634.50
2022-10-29T07:34:44.801Z,100625.41
2022-10-29T07:35:48.196Z,100631.06
2022-10-29T07:36:51.802Z,100629.85
2022-10-29T07:38:09.044Z,100628.31
2022-10-29T07:39:09.102Z,100621.51
2022-10-29T07:40:13.285Z,100630.40
2022-10-29T07:41:16.650Z,100624.30
2022-10-29T07:42:19.240Z,100632.10
2022-10-29T07:43:23.582Z,100628.94
2022-10-29T07:44:27.918Z,100630.66
2022-10-29T07:45:31.438Z,100635.62
2022-10-29T07:46:35.140Z,100632.95
2022-10-29T07:47:39.713Z,100640.60
2022-10-29T07:48:43.240Z,100638.08
2022-10-29T07:49:47.364Z,100650.95
2022-10-29T07:50:52.305Z,100632.46
2022-10-29T07:51:54.973Z,100649.38
2022-10-29T07:53:01.520Z,100649.23
2022-10-29T07:54:05.013Z,100651.31
2022-10-29T07:55:08.099Z,100646.45
2022-10-29T07:56:11.593Z,100637.40
2022-10-29T07:57:15.099Z,100632.77
2022-10-29T07:58:18.616Z,100622.95
2022-10-29T07:59:21.908Z,100627.53
2022-10-29T08:00:26.563Z,100627.53
2022-10-29T08:01:30.152Z,100633.81
2022-10-29T08:02:34.254Z,100638.31
2022-10-29T08:03:39.432Z,100641.25
2022-10-29T08:04:41.620Z,100634.17
2022-10-29T08:05:45.226Z,100642.03
2022-10-29T08:06:48.637Z,100630.45
2022-10-29T08:07:54.018Z,100624.73
2022-10-29T08:08:58.249Z,100616.42
2022-10-29T08:10:01.410Z,100621.16
2022-10-29T08:11:06.625Z,100621.90
2022-10-29T08:12:11.803Z,100624.45
2022-10-29T08:13:15.203Z,100624.33
2022-10-29T08:14:20.334Z,100621.82
2022-10-29T08:15:23.772Z,100631.67
2022-10-29T08:16:29.996Z,100634.60
2022-10-29T08:17:34.539Z,100638.25
2022-10-29T08:18:37.632Z,100639.86
2022-10-29T08:19:41.041Z,100643.14
2022-10-29T08:20:44.856Z,100647.41
2022-10-29T08:21:47.839Z,100648.84
2022-10-29T08:22:50.405Z,100651.39
2022-10-29T08:23:54.119Z,100654.44
2022-10-29T08:24:58.515Z,100642.63
2022-10-29T08:26:01.952Z,100637.40
2022-10-29T08:27:06.205Z,100632.45
2022-10-29T08:28:10.739Z,100625.34
2022-10-29T08:29:14.284Z,100622.98
2022-10-29T08:30:18.906Z,100640.58
2022-10-29T08:31:23.631Z,100641.08
2022-10-29T08:32:28.007Z,100640.15
2022-10-29T08:33:30.988Z,100638.82
2022-10-29T08:34:34.378Z,100642.58
2022-10-29T08:35:37.885Z,100641.20
2022-10-29T08:36:42.130Z,100645.70
2022-10-29T08:37:45.948Z,100642.16
2022-10-29T08:38:49.284Z,100642.70
2022-10-29T08:39:52.013Z,100644.17
2022-10-29T08:41:17.971Z,100644.16
2022-10-29T08:42:37.771Z,100647.52
2022-10-29T08:43:54.715Z,100639.05
2022-10-29T08:45:15.067Z,100642.33
2022-10-29T08:46:34.354Z,100645.58
2022-10-29T08:47:44.754Z,100646.34
2022-10-29T08:48:56.093Z,100650.90
2022-10-29T08:50:16.936Z,100641.91
2022-10-29T08:51:31.506Z,100644.73
2022-10-29T08:52:36.186Z,100635.02
2022-10-29T08:53:40.706Z,100647.65
2022-10-29T08:54:46.936Z,100649.19
2022-10-29T08:55:50.443Z,100647.52
2022-10-29T08:56:56.905Z,100640.59
2022-10-29T08:58:02.038Z,100646.07
2022-10-29T08:59:15.892Z,100632.81
2022-10-29T09:00:23.153Z,100628.13
2022-10-29T09:01:26.487Z,100622.70
2022-10-29T09:02:30.783Z,100628.18
2022-10-29T09:03:34.394Z,100623.84
2022-10-29T09:04:41.714Z,100619.64
2022-10-29T09:05:50.292Z,100616.92
2022-10-29T09:07:04.659Z,100625.00
2022-10-29T09:08:15.475Z,100618.75
2022-10-29T09:09:25.341Z,100617.58
2022-10-29T09:10:34.104Z,100608.88
2022-10-29T09:11:39.359Z,100611.55
2022-10-29T09:12:50.542Z,100609.83
2022-10-29T09:14:14.912Z,100610.35
2022-10-29T09:15:36.882Z,100601.59
2022-10-29T09:16:51.175Z,100604.17
2022-10-29T09:18:12.819Z,100601.58
2022-10-29T09:19:42.228Z,100593.45
2022-10-29T09:20:55.645Z,100593.70
2022-10-29T09:22:17.125Z,100585.87
2022-10-29T09:23:25.111Z,100577.17
2022-10-29T09:24:36.032Z,100576.50
2022-10-29T09:25:44.144Z,100587.80
2022-10-29T09:26:50.514Z,100584.46
2022-10-29T09:28:10.786Z,100572.54
2022-10-29T09:29:22.863Z,100576.78
2022-10-29T09:30:30.116Z,100586.86
2022-10-29T09:31:35.088Z,100582.78
2022-10-29T09:32:44.302Z,100572.27
2022-10-29T09:33:51.008Z,100575.89
2022-10-29T09:34:59.289Z,100574.25
2022-10-29T09:36:05.816Z,100575.39
2022-10-29T09:37:14.855Z,100572.60
2022-10-29T09:38:21.944Z,100580.72
2022-10-29T09:39:35.138Z,100577.09
2022-10-29T09:40:41.453Z,100578.17
2022-10-29T09:41:44.446Z,100571.61
2022-10-29T09:42:47.743Z,100571.47
2022-10-29T09:43:53.022Z,100568.06
2022-10-29T09:44:58.306Z,100569.10
2022-10-29T09:46:03.364Z,100564.38
2022-10-29T09:47:15.996Z,100569.30
2022-10-29T09:48:23.346Z,100549.67
2022-10-29T09:49:34.795Z,100547.33
2022-10-29T09:50:49.042Z,100532.66
2022-10-29T09:52:09.482Z,100544.50
2022-10-29T09:53:14.888Z,100540.34
2022-10-29T09:54:18.340Z,100536.27
2022-10-29T09:55:25.104Z,100532.66
2022-10-29T09:56:28.636Z,100523.95
2022-10-29T09:57:34.607Z,100524.52
2022-10-29T09:58:39.988Z,100525.66
2022-10-29T09:59:45.388Z,100518.61
2022-10-29T10:00:48.616Z,100515.73
2022-10-29T10:01:52.029Z,100512.64
2022-10-29T10:02:57.657Z,100517.13
2022-10-29T10:04:03.284Z,100520.72
2022-10-29T10:05:14.499Z,100518.38
2022-10-29T10:06:19.265Z,100508.50
2022-10-29T10:07:22.654Z,100508.55
2022-10-29T10:08:25.200Z,100499.57
2022-10-29T10:09:28.632Z,100504.27
2022-10-29T10:10:31.302Z,100500.02
2022-10-29T10:11:39.403Z,100509.34
2022-10-29T10:12:46.144Z,100494.83
2022-10-29T10:13:55.217Z,100500.10
2022-10-29T10:15:03.068Z,100491.21
2022-10-29T10:16:06.941Z,100492.88
2022-10-29T10:17:09.355Z,100483.95
2022-10-29T10:18:23.881Z,100484.35
2022-10-29T10:19:29.319Z,100485.59
2022-10-29T10:20:35.138Z,100486.27
2022-10-29T10:21:39.449Z,100488.01
2022-10-29T10:22:44.741Z,100478.92
2022-10-29T10:23:51.066Z,100473.90
2022-10-29T10:24:54.340Z,100473.88
2022-10-29T10:26:02.360Z,100478.79
2022-10-29T10:27:09.455Z,100471.94
2022-10-29T10:28:28.368Z,100470.72
2022-10-29T10:29:32.405Z,100462.59
2022-10-29T10:30:35.690Z,100467.80
2022-10-29T10:31:43.279Z,100459.47
2022-10-29T10:32:46.620Z,100457.14
2022-10-29T10:33:51.024Z,100461.25
2022-10-29T10:34:53.274Z,100453.57
2022-10-29T10:35:58.332Z,100459.06
2022-10-29T10:37:13.550Z,100450.58
2022-10-29T10:38:17.471Z,100440.52
2022-10-29T10:39:21.915Z,100449.98
2022-10-29T10:40:25.513Z,100441.98
2022-10-29T10:41:30.595Z,100443.67
2022-10-29T10:42:36.074Z,100444.28
2022-10-29T10:43:44.072Z,100452.22
2022-10-29T10:44:52.966Z,100450.29
2022-10-29T10:46:03.037Z,100439.98
2022-10-29T10:47:07.749Z,100434.35
2022-10-29T10:48:11.022Z,100434.30
2022-10-29T10:49:16.825Z,100432.59
2022-10-29T10:50:23.773Z,100421.59
2022-10-29T10:51:28.974Z,100424.52
2022-10-29T10:52:31.586Z,100421.64
2022-10-29T10:53:35.193Z,100416.34
2022-10-29T10:54:43.625Z,100409.81
2022-10-29T10:55:51.046Z,100408.73
2022-10-29T10:56:58.834Z,100395.11
2022-10-29T10:58:04.220Z,100396.06
2022-10-29T10:59:09.216Z,100388.59
2022-10-29T11:00:22.937Z,100385.05
2022-10-29T11:01:30.835Z,100386.74
2022-10-29T11:02:37.562Z,100378.05
2022-10-29T11:03:41.797Z,100365.52
2022-10-29T11:04:46.244Z,100368.22
2022-10-29T11:05:57.363Z,100368.91
2022-10-29T11:07:02.236Z,100371.20
2022-10-29T11:08:08.769Z,100369.00
2022-10-29T11:09:20.349Z,100369.95
2022-10-29T11:10:26.535Z,100378.46
2022-10-29T11:11:34.222Z,100384.69
2022-10-29T11:12:48.629Z,100381.60
2022-10-29T11:13:52.510Z,100380.83
2022-10-29T11:14:59.775Z,100373.27
2022-10-29T11:16:07.185Z,100374.25
2022-10-29T11:17:19.726Z,100369.67
2022-10-29T11:18:30.408Z,100359.20
2022-10-29T11:19:39.702Z,100364.99
2022-10-29T11:20:44.144Z,100362.23
2022-10-29T11:22:09.838Z,100358.09
2022-10-29T11:23:31.786Z,100367.06
2022-10-29T11:24:40.711Z,100366.38
2022-10-29T11:25:44.842Z,100357.28
2022-10-29T11:26:58.178Z,100354.56
2022-10-29T11:28:03.201Z,100359.91
2022-10-29T11:29:12.498Z,100351.64
2022-10-29T11:30:18.183Z,100349.19
2022-10-29T11:31:28.873Z,100349.36
2022-10-29T11:32:37.208Z,100343.16
2022-10-29T11:33:52.732Z,100332.46
2022-10-29T11:35:14.508Z,100333.94
2022-10-29T11:36:18.638Z,100341.69
2022-10-29T11:37:41.059Z,100346.49
2022-10-29T11:38:53.954Z,100343.25
2022-10-29T11:40:15.462Z,100342.95
2022-10-29T11:41:36.370Z,100332.92
2022-10-29T11:42:39.269Z,100336.23
2022-10-29T11:43:42.596Z,100343.86
2022-10-29T11:44:47.326Z,100347.22
2022-10-29T11:46:10.711Z,100347.48
2022-10-29T11:47:23.994Z,100345.72
2022-10-29T11:48:41.385Z,100345.72
2022-10-29T11:49:52.200Z,100339.31
2022-10-29T11:51:03.401Z,100334.78
2022-10-29T11:52:07.765Z,100325.64
2022-10-29T11:53:25.056Z,100332.79
2022-10-29T11:54:40.479Z,100330.78
2022-10-29T11:55:51.867Z,100328.16
2022-10-29T11:57:00.965Z,100328.66
2022-10-29T11:58:06.976Z,100331.09
2022-10-29T11:59:20.506Z,100325.41
2022-10-29T12:00:28.926Z,100324.97
2022-10-29T12:01:39.878Z,100323.92
2022-10-29T12:03:01.654Z,100319.24
2022-10-29T12:05:17.713Z,100318.16
2022-10-29T12:06:28.515Z,100311.02
2022-10-29T12:07:40.921Z,100310.63
2022-10-29T12:08:58.323Z,100302.05
2022-10-29T12:10:12.829Z,100298.45
2022-10-29T12:11:37.919Z,100300.92
2022-10-29T12:12:42.047Z,100294.34
2022-10-29T12:13:49.524Z,100290.05
2022-10-29T12:15:01.487Z,100281.19
2022-10-29T12:16:11.155Z,100291.59
2022-10-29T12:17:15.821Z,100280.67
2022-10-29T12:18:30.166Z,100283.23
2022-10-29T12:19:39.101Z,100281.89
2022-10-29T12:20:49.685Z,100290.41
2022-10-29T12:22:01.575Z,100283.69
2022-10-29T12:23:15.049Z,100276.64
2022-10-29T12:24:24.668Z,100277.80
2022-10-29T12:25:33.926Z,100279.68
2022-10-29T12:26:39.132Z,100274.16
2022-10-29T12:27:46.262Z,100276.67
2022-10-29T12:28:50.394Z,100275.48
2022-10-29T12:29:57.439Z,100280.27
2022-10-29T12:31:03.659Z,100282.74
2022-10-29T12:32:08.637Z,100280.83
2022-10-29T12:33:16.521Z,100272.80
2022-10-29T12:34:20.651Z,100272.41
2022-10-29T12:35:33.765Z,100276.95
2022-10-29T12:36:56.700Z,100277.25
2022-10-29T12:38:03.235Z,100273.27
2022-10-29T12:39:08.628Z,100272.78
2022-10-29T12:40:27.182Z,100272.16
2022-10-29T12:41:32.965Z,100271.87
2022-10-29T12:42:35.645Z,100266.94